Back to Top

Language: 

My Weather Underground Personal Weather Station Historical Data with Graphs...

Delerius Weather Station Historical Data
Daily Summary for February 14, 2017 Units:  Both    English   Metric
« Previous Day
Next Day »
Daily Weekly Monthly Yearly Custom
  High: Low: Average:
Temperature: 45.5 °F /  7.5 °C 31.6 °F /  -0.2 °C 39.4 °F /  4.1 °C
Dew Point: 41.9 °F /  5.5 °C 30.8 °F /  -0.7 °C 37.1 °F /  2.8 °C
Humidity: 98 % 80 % 92 %
Wind Speed: 8.0 mph /  12.9 km/h - 1.9 mph /  3.1 km/h
Wind Gust: 13.0 mph /  20.9 km/h - -
Wind:- - ESE
Pressure: 30.30 in /  1026 hPa 30.22 in /  1023.2 hPa -
Precipitation: 0.00 in /  0 mm    
Historical Graphs
 
 
Tabular Data for February 14, 2017
Time Temperature Dew Point Pressure Wind Wind Speed Wind Gust Humidity Rainfall Rate (Hourly) solar Conditions
00:00 37.2 °F /  2.9 °C 35.4 °F /  1.9 °C 30.28 in /  1025.3 hPa ENE 5.0 mph /  8 km/h 5.0 mph /  8 km/h 93 % 0.00 in /  0 mm 0 W/m2
00:05 37.1 °F /  2.8 °C 35.3 °F /  1.8 °C 30.28 in /  1025.3 hPa NE 5.0 mph /  8 km/h 5.0 mph /  8 km/h 93 % 0.00 in /  0 mm 0 W/m2
00:15 36.9 °F /  2.7 °C 35.3 °F /  1.8 °C 30.27 in /  1024.9 hPa NE 5.0 mph /  8 km/h 5.0 mph /  8 km/h 94 % 0.00 in /  0 mm 0 W/m2
00:25 36.8 °F /  2.7 °C 35.2 °F /  1.8 °C 30.27 in /  1024.9 hPa ENE 4.0 mph /  6.4 km/h 4.0 mph /  6.4 km/h 94 % 0.00 in /  0 mm 0 W/m2
00:30 36.7 °F /  2.6 °C 35.1 °F /  1.7 °C 30.27 in /  1024.9 hPa ENE 3.0 mph /  4.8 km/h 3.0 mph /  4.8 km/h 94 % 0.00 in /  0 mm 0 W/m2
00:40 36.6 °F /  2.6 °C 35.0 °F /  1.7 °C 30.27 in /  1024.9 hPa ENE 2.0 mph /  3.2 km/h 4.0 mph /  6.4 km/h 94 % 0.00 in /  0 mm 0 W/m2
00:45 36.5 °F /  2.5 °C 34.9 °F /  1.6 °C 30.27 in /  1024.9 hPa ENE 2.0 mph /  3.2 km/h 4.0 mph /  6.4 km/h 94 % 0.00 in /  0 mm 0 W/m2
00:55 36.3 °F /  2.4 °C 34.7 °F /  1.5 °C 30.26 in /  1024.6 hPa ENE 2.0 mph /  3.2 km/h 5.0 mph /  8 km/h 94 % 0.00 in /  0 mm 0 W/m2
01:00 36.3 °F /  2.4 °C 35.0 °F /  1.7 °C 30.26 in /  1024.6 hPa East 2.0 mph /  3.2 km/h 4.0 mph /  6.4 km/h 95 % 0.00 in /  0 mm 0 W/m2
01:05 36.2 °F /  2.3 °C 34.9 °F /  1.6 °C 30.26 in /  1024.6 hPa NE 2.0 mph /  3.2 km/h 6.0 mph /  9.7 km/h 95 % 0.00 in /  0 mm 0 W/m2
01:15 36.1 °F /  2.3 °C 34.8 °F /  1.6 °C 30.26 in /  1024.6 hPa ENE 3.0 mph /  4.8 km/h 7.0 mph /  11.3 km/h 95 % 0.00 in /  0 mm 0 W/m2
01:20 36.1 °F /  2.3 °C 34.8 °F /  1.6 °C 30.26 in /  1024.6 hPa ENE 3.0 mph /  4.8 km/h 3.0 mph /  4.8 km/h 95 % 0.00 in /  0 mm 0 W/m2
01:25 36.1 °F /  2.3 °C 34.8 °F /  1.6 °C 30.25 in /  1024.3 hPa East 2.0 mph /  3.2 km/h 10.0 mph /  16.1 km/h 95 % 0.00 in /  0 mm 0 W/m2
01:35 35.8 °F /  2.1 °C 34.5 °F /  1.4 °C 30.26 in /  1024.6 hPa NE 1.0 mph /  1.6 km/h 10.0 mph /  16.1 km/h 95 % 0.00 in /  0 mm 0 W/m2
01:40 35.7 °F /  2.1 °C 34.4 °F /  1.3 °C 30.26 in /  1024.6 hPa East 1.0 mph /  1.6 km/h 1.0 mph /  1.6 km/h 95 % 0.00 in /  0 mm 0 W/m2
01:50 35.4 °F /  1.9 °C 34.1 °F /  1.2 °C 30.26 in /  1024.6 hPa East 1.0 mph /  1.6 km/h 1.0 mph /  1.6 km/h 95 % 0.00 in /  0 mm 0 W/m2
02:00 35.3 °F /  1.8 °C 34.0 °F /  1.1 °C 30.26 in /  1024.6 hPa ESE 1.0 mph /  1.6 km/h 10.0 mph /  16.1 km/h 95 % 0.00 in /  0 mm 0 W/m2
02:10 35.4 °F /  1.9 °C 34.1 °F /  1.2 °C 30.25 in /  1024.3 hPa ENE 2.0 mph /  3.2 km/h 10.0 mph /  16.1 km/h 95 % 0.00 in /  0 mm 0 W/m2
02:15 35.3 °F /  1.8 °C 34.0 °F /  1.1 °C 30.25 in /  1024.3 hPa ENE 1.0 mph /  1.6 km/h 10.0 mph /  16.1 km/h 95 % 0.00 in /  0 mm 0 W/m2
02:20 35.3 °F /  1.8 °C 34.3 °F /  1.3 °C 30.25 in /  1024.3 hPa SE 1.0 mph /  1.6 km/h 10.0 mph /  16.1 km/h 96 % 0.00 in /  0 mm 0 W/m2
02:30 35.3 °F /  1.8 °C 34.3 °F /  1.3 °C 30.25 in /  1024.3 hPa ESE 1.0 mph /  1.6 km/h 1.0 mph /  1.6 km/h 96 % 0.00 in /  0 mm 0 W/m2
02:35 35.2 °F /  1.8 °C 34.2 °F /  1.2 °C 30.25 in /  1024.3 hPa ESE 1.0 mph /  1.6 km/h 2.0 mph /  3.2 km/h 96 % 0.00 in /  0 mm 0 W/m2
02:40 35.1 °F /  1.7 °C 34.1 °F /  1.2 °C 30.25 in /  1024.3 hPa ENE 2.0 mph /  3.2 km/h 10.0 mph /  16.1 km/h 96 % 0.00 in /  0 mm 0 W/m2
02:45 35.1 °F /  1.7 °C 34.1 °F /  1.2 °C 30.25 in /  1024.3 hPa East 2.0 mph /  3.2 km/h 10.0 mph /  16.1 km/h 96 % 0.00 in /  0 mm 0 W/m2
02:55 35.0 °F /  1.7 °C 34.0 °F /  1.1 °C 30.25 in /  1024.3 hPa East 1.0 mph /  1.6 km/h 10.0 mph /  16.1 km/h 96 % 0.00 in /  0 mm 0 W/m2
03:00 35.0 °F /  1.7 °C 34.0 °F /  1.1 °C 30.25 in /  1024.3 hPa ENE 1.0 mph /  1.6 km/h 1.0 mph /  1.6 km/h 96 % 0.00 in /  0 mm 0 W/m2
03:05 34.9 °F /  1.6 °C 33.9 °F /  1.1 °C 30.25 in /  1024.3 hPa Calm   10.0 mph /  16.1 km/h 96 % 0.00 in /  0 mm 0 W/m2
03:15 34.7 °F /  1.5 °C 33.7 °F /  0.9 °C 30.25 in /  1024.3 hPa Calm   10.0 mph /  16.1 km/h 96 % 0.00 in /  0 mm 0 W/m2
03:20 34.4 °F /  1.3 °C 33.4 °F /  0.8 °C 30.25 in /  1024.3 hPa Calm   10.0 mph /  16.1 km/h 96 % 0.00 in /  0 mm 0 W/m2
03:25 34.2 °F /  1.2 °C 33.2 °F /  0.7 °C 30.24 in /  1023.9 hPa Calm   10.0 mph /  16.1 km/h 96 % 0.00 in /  0 mm 0 W/m2
03:30 34.3 °F /  1.3 °C 33.3 °F /  0.7 °C 30.24 in /  1023.9 hPa East 1.0 mph /  1.6 km/h 10.0 mph /  16.1 km/h 96 % 0.00 in /  0 mm 0 W/m2
03:40 34.5 °F /  1.4 °C 33.5 °F /  0.8 °C 30.24 in /  1023.9 hPa NE 1.0 mph /  1.6 km/h 10.0 mph /  16.1 km/h 96 % 0.00 in /  0 mm 0 W/m2
03:45 34.8 °F /  1.6 °C 33.8 °F /  1 °C 30.24 in /  1023.9 hPa East 3.0 mph /  4.8 km/h 10.0 mph /  16.1 km/h 96 % 0.00 in /  0 mm 0 W/m2
03:50 35.0 °F /  1.7 °C 34.2 °F /  1.2 °C 30.23 in /  1023.6 hPa ENE 4.0 mph /  6.4 km/h 10.0 mph /  16.1 km/h 97 % 0.00 in /  0 mm 0 W/m2
03:55 35.1 °F /  1.7 °C 34.3 °F /  1.3 °C 30.23 in /  1023.6 hPa East 4.0 mph /  6.4 km/h 10.0 mph /  16.1 km/h 97 % 0.00 in /  0 mm 0 W/m2
04:05 34.7 °F /  1.5 °C 33.7 °F /  0.9 °C 30.24 in /  1023.9 hPa Calm   10.0 mph /  16.1 km/h 96 % 0.00 in /  0 mm 0 W/m2
04:10 34.2 °F /  1.2 °C 33.2 °F /  0.7 °C 30.23 in /  1023.6 hPa Calm   10.0 mph /  16.1 km/h 96 % 0.00 in /  0 mm 0 W/m2
04:15 33.8 °F /  1 °C 32.8 °F /  0.4 °C 30.23 in /  1023.6 hPa Calm   10.0 mph /  16.1 km/h 96 % 0.00 in /  0 mm 0 W/m2
04:20 33.7 °F /  0.9 °C 32.7 °F /  0.4 °C 30.23 in /  1023.6 hPa East 1.0 mph /  1.6 km/h 1.0 mph /  1.6 km/h 96 % 0.00 in /  0 mm 0 W/m2
04:25 33.6 °F /  0.9 °C 32.6 °F /  0.3 °C 30.23 in /  1023.6 hPa Calm   10.0 mph /  16.1 km/h 96 % 0.00 in /  0 mm 0 W/m2
04:35 33.3 °F /  0.7 °C 32.3 °F /  0.2 °C 30.23 in /  1023.6 hPa Calm   10.0 mph /  16.1 km/h 96 % 0.00 in /  0 mm 0 W/m2
04:40 33.1 °F /  0.6 °C 32.1 °F /  0.1 °C 30.23 in /  1023.6 hPa Calm   10.0 mph /  16.1 km/h 96 % 0.00 in /  0 mm 0 W/m2
04:45 33.3 °F /  0.7 °C 32.5 °F /  0.3 °C 30.23 in /  1023.6 hPa ENE 1.0 mph /  1.6 km/h 10.0 mph /  16.1 km/h 97 % 0.00 in /  0 mm 0 W/m2
04:50 33.7 °F /  0.9 °C 32.9 °F /  0.5 °C 30.23 in /  1023.6 hPa East 2.0 mph /  3.2 km/h 10.0 mph /  16.1 km/h 97 % 0.00 in /  0 mm 0 W/m2
05:05 34.3 °F /  1.3 °C 33.5 °F /  0.8 °C 30.23 in /  1023.6 hPa ESE 3.0 mph /  4.8 km/h 10.0 mph /  16.1 km/h 97 % 0.00 in /  0 mm 0 W/m2
05:10 34.3 °F /  1.3 °C 33.5 °F /  0.8 °C 30.23 in /  1023.6 hPa ESE 2.0 mph /  3.2 km/h 2.0 mph /  3.2 km/h 97 % 0.00 in /  0 mm 0 W/m2
05:15 34.3 °F /  1.3 °C 33.5 °F /  0.8 °C 30.23 in /  1023.6 hPa ESE 2.0 mph /  3.2 km/h 10.0 mph /  16.1 km/h 97 % 0.00 in /  0 mm 0 W/m2
05:20 34.2 °F /  1.2 °C 33.4 °F /  0.8 °C 30.23 in /  1023.6 hPa ESE 1.0 mph /  1.6 km/h 1.0 mph /  1.6 km/h 97 % 0.00 in /  0 mm 0 W/m2
05:30 33.5 °F /  0.8 °C 32.5 °F /  0.3 °C 30.23 in /  1023.6 hPa Calm   10.0 mph /  16.1 km/h 96 % 0.00 in /  0 mm 0 W/m2
05:35 33.2 °F /  0.7 °C 32.2 °F /  0.1 °C 30.23 in /  1023.6 hPa Calm   10.0 mph /  16.1 km/h 96 % 0.00 in /  0 mm 0 W/m2
05:40 33.1 °F /  0.6 °C 32.1 °F /  0.1 °C 30.23 in /  1023.6 hPa Calm   10.0 mph /  16.1 km/h 96 % 0.00 in /  0 mm 0 W/m2
05:45 33.3 °F /  0.7 °C 32.5 °F /  0.3 °C 30.23 in /  1023.6 hPa ESE 1.0 mph /  1.6 km/h 10.0 mph /  16.1 km/h 97 % 0.00 in /  0 mm 0 W/m2
05:55 33.4 °F /  0.8 °C 32.6 °F /  0.3 °C 30.23 in /  1023.6 hPa ENE 1.0 mph /  1.6 km/h 10.0 mph /  16.1 km/h 97 % 0.00 in /  0 mm 0 W/m2
06:00 33.4 °F /  0.8 °C 32.6 °F /  0.3 °C 30.22 in /  1023.2 hPa ENE 2.0 mph /  3.2 km/h 2.0 mph /  3.2 km/h 97 % 0.00 in /  0 mm 0 W/m2
06:05 33.4 °F /  0.8 °C 32.6 °F /  0.3 °C 30.22 in /  1023.2 hPa East 2.0 mph /  3.2 km/h 10.0 mph /  16.1 km/h 97 % 0.00 in /  0 mm 0 W/m2
06:15 33.5 °F /  0.8 °C 32.7 °F /  0.4 °C 30.22 in /  1023.2 hPa East 2.0 mph /  3.2 km/h 10.0 mph /  16.1 km/h 97 % 0.00 in /  0 mm 0 W/m2
06:20 33.6 °F /  0.9 °C 32.8 °F /  0.4 °C 30.22 in /  1023.2 hPa East 2.0 mph /  3.2 km/h 10.0 mph /  16.1 km/h 97 % 0.00 in /  0 mm 0 W/m2
06:25 33.6 °F /  0.9 °C 32.8 °F /  0.4 °C 30.22 in /  1023.2 hPa ENE 3.0 mph /  4.8 km/h 10.0 mph /  16.1 km/h 97 % 0.00 in /  0 mm 0 W/m2
06:30 33.6 °F /  0.9 °C 32.8 °F /  0.4 °C 30.22 in /  1023.2 hPa East 3.0 mph /  4.8 km/h 10.0 mph /  16.1 km/h 97 % 0.00 in /  0 mm 0 W/m2
06:40 33.7 °F /  0.9 °C 32.9 °F /  0.5 °C 30.22 in /  1023.2 hPa SE 2.0 mph /  3.2 km/h 2.0 mph /  3.2 km/h 97 % 0.00 in /  0 mm 0 W/m2
06:45 33.7 °F /  0.9 °C 32.9 °F /  0.5 °C 30.22 in /  1023.2 hPa East 1.0 mph /  1.6 km/h 4.0 mph /  6.4 km/h 97 % 0.00 in /  0 mm 0 W/m2
06:50 33.6 °F /  0.9 °C 32.8 °F /  0.4 °C 30.22 in /  1023.2 hPa ESE 1.0 mph /  1.6 km/h 1.0 mph /  1.6 km/h 97 % 0.00 in /  0 mm 0 W/m2
06:55 33.6 °F /  0.9 °C 32.8 °F /  0.4 °C 30.22 in /  1023.2 hPa ENE 2.0 mph /  3.2 km/h 2.0 mph /  3.2 km/h 97 % 0.00 in /  0 mm 0 W/m2
07:05 33.6 °F /  0.9 °C 32.8 °F /  0.4 °C 30.23 in /  1023.6 hPa East 1.0 mph /  1.6 km/h 10.0 mph /  16.1 km/h 97 % 0.00 in /  0 mm 0 W/m2
07:10 33.5 °F /  0.8 °C 32.7 °F /  0.4 °C 30.23 in /  1023.6 hPa Calm   10.0 mph /  16.1 km/h 97 % 0.00 in /  0 mm 0 W/m2
07:15 33.3 °F /  0.7 °C 32.5 °F /  0.3 °C 30.23 in /  1023.6 hPa Calm   10.0 mph /  16.1 km/h 97 % 0.00 in /  0 mm 0 W/m2
07:25 33.2 °F /  0.7 °C 32.4 °F /  0.2 °C 30.23 in /  1023.6 hPa Calm   10.0 mph /  16.1 km/h 97 % 0.00 in /  0 mm 5 W/m2
07:30 33.0 °F /  0.6 °C 32.2 °F /  0.1 °C 30.24 in /  1023.9 hPa Calm   10.0 mph /  16.1 km/h 97 % 0.00 in /  0 mm 5 W/m2
07:35 32.7 °F /  0.4 °C 31.9 °F /  -0.1 °C 30.24 in /  1023.9 hPa Calm   10.0 mph /  16.1 km/h 97 % 0.00 in /  0 mm 9 W/m2
07:45 32.1 °F /  0.1 °C 31.1 °F /  -0.5 °C 30.24 in /  1023.9 hPa Calm   10.0 mph /  16.1 km/h 96 % 0.00 in /  0 mm 14 W/m2
07:50 32.0 °F /  0 °C 31.2 °F /  -0.4 °C 30.24 in /  1023.9 hPa Calm   10.0 mph /  16.1 km/h 97 % 0.00 in /  0 mm 18 W/m2
07:55 31.9 °F /  -0.1 °C 31.1 °F /  -0.5 °C 30.24 in /  1023.9 hPa Calm   10.0 mph /  16.1 km/h 97 % 0.00 in /  0 mm 23 W/m2
08:00 31.8 °F /  -0.1 °C 31.0 °F /  -0.6 °C 30.24 in /  1023.9 hPa Calm   10.0 mph /  16.1 km/h 97 % 0.00 in /  0 mm 28 W/m2
08:05 31.7 °F /  -0.2 °C 30.9 °F /  -0.6 °C 30.24 in /  1023.9 hPa Calm   10.0 mph /  16.1 km/h 97 % 0.00 in /  0 mm 32 W/m2
08:15 31.6 °F /  -0.2 °C 30.8 °F /  -0.7 °C 30.24 in /  1023.9 hPa Calm   10.0 mph /  16.1 km/h 97 % 0.00 in /  0 mm 46 W/m2
08:20 31.6 °F /  -0.2 °C 30.8 °F /  -0.7 °C 30.24 in /  1023.9 hPa Calm   10.0 mph /  16.1 km/h 97 % 0.00 in /  0 mm 53 W/m2
08:30 31.8 °F /  -0.1 °C 31.0 °F /  -0.6 °C 30.24 in /  1023.9 hPa Calm   10.0 mph /  16.1 km/h 97 % 0.00 in /  0 mm 65 W/m2
08:35 32.0 °F /  0 °C 31.2 °F /  -0.4 °C 30.24 in /  1023.9 hPa Calm   10.0 mph /  16.1 km/h 97 % 0.00 in /  0 mm 70 W/m2
08:40 32.2 °F /  0.1 °C 31.4 °F /  -0.3 °C 30.24 in /  1023.9 hPa Calm   10.0 mph /  16.1 km/h 97 % 0.00 in /  0 mm 79 W/m2
08:45 32.4 °F /  0.2 °C 31.6 °F /  -0.2 °C 30.24 in /  1023.9 hPa Calm   10.0 mph /  16.1 km/h 97 % 0.00 in /  0 mm 88 W/m2
08:50 32.7 °F /  0.4 °C 32.2 °F /  0.1 °C 30.24 in /  1023.9 hPa Calm   10.0 mph /  16.1 km/h 98 % 0.00 in /  0 mm 93 W/m2
09:00 33.8 °F /  1 °C 33.3 °F /  0.7 °C 30.25 in /  1024.3 hPa Calm   10.0 mph /  16.1 km/h 98 % 0.00 in /  0 mm 116 W/m2
09:05 34.3 °F /  1.3 °C 33.8 °F /  1 °C 30.24 in /  1023.9 hPa Calm   10.0 mph /  16.1 km/h 98 % 0.00 in /  0 mm 128 W/m2
09:10 34.6 °F /  1.4 °C 34.1 °F /  1.2 °C 30.25 in /  1024.3 hPa Calm   10.0 mph /  16.1 km/h 98 % 0.00 in /  0 mm 137 W/m2
09:15 34.9 °F /  1.6 °C 34.4 °F /  1.3 °C 30.24 in /  1023.9 hPa Calm   10.0 mph /  16.1 km/h 98 % 0.00 in /  0 mm 142 W/m2
09:25 35.5 °F /  1.9 °C 35.0 °F /  1.7 °C 30.25 in /  1024.3 hPa ESE 1.0 mph /  1.6 km/h 10.0 mph /  16.1 km/h 98 % 0.00 in /  0 mm 135 W/m2
09:30 35.7 °F /  2.1 °C 35.2 °F /  1.8 °C 30.25 in /  1024.3 hPa ESE 1.0 mph /  1.6 km/h 1.0 mph /  1.6 km/h 98 % 0.00 in /  0 mm 165 W/m2
09:35 35.6 °F /  2 °C 35.1 °F /  1.7 °C 30.25 in /  1024.3 hPa Calm   10.0 mph /  16.1 km/h 98 % 0.00 in /  0 mm 178 W/m2
09:45 36.0 °F /  2.2 °C 35.5 °F /  1.9 °C 30.25 in /  1024.3 hPa Calm   10.0 mph /  16.1 km/h 98 % 0.00 in /  0 mm 195 W/m2
09:50 36.3 °F /  2.4 °C 35.8 °F /  2.1 °C 30.25 in /  1024.3 hPa SE 1.0 mph /  1.6 km/h 10.0 mph /  16.1 km/h 98 % 0.00 in /  0 mm 192 W/m2
09:55 36.6 °F /  2.6 °C 36.1 °F /  2.3 °C 30.25 in /  1024.3 hPa East 1.0 mph /  1.6 km/h 10.0 mph /  16.1 km/h 98 % 0.00 in /  0 mm 213 W/m2
10:00 37.0 °F /  2.8 °C 36.5 °F /  2.5 °C 30.25 in /  1024.3 hPa SE 2.0 mph /  3.2 km/h 2.0 mph /  3.2 km/h 98 % 0.00 in /  0 mm 214 W/m2
10:05 37.2 °F /  2.9 °C 36.7 °F /  2.6 °C 30.26 in /  1024.6 hPa SSE 2.0 mph /  3.2 km/h 5.0 mph /  8 km/h 98 % 0.00 in /  0 mm 234 W/m2
10:15 37.6 °F /  3.1 °C 37.1 °F /  2.8 °C 30.26 in /  1024.6 hPa East 4.0 mph /  6.4 km/h 6.0 mph /  9.7 km/h 98 % 0.00 in /  0 mm 199 W/m2
10:20 37.7 °F /  3.2 °C 37.2 °F /  2.9 °C 30.26 in /  1024.6 hPa ESE 5.0 mph /  8 km/h 10.0 mph /  16.1 km/h 98 % 0.00 in /  0 mm 244 W/m2
10:25 37.8 °F /  3.2 °C 37.0 °F /  2.8 °C 30.26 in /  1024.6 hPa ESE 5.0 mph /  8 km/h 10.0 mph /  16.1 km/h 97 % 0.00 in /  0 mm 265 W/m2
10:35 38.1 °F /  3.4 °C 37.3 °F /  2.9 °C 30.26 in /  1024.6 hPa ESE 7.0 mph /  11.3 km/h 7.0 mph /  11.3 km/h 97 % 0.00 in /  0 mm 287 W/m2
10:40 38.5 °F /  3.6 °C 37.7 °F /  3.2 °C 30.26 in /  1024.6 hPa ENE 6.0 mph /  9.7 km/h 10.0 mph /  16.1 km/h 97 % 0.00 in /  0 mm 290 W/m2
10:45 38.7 °F /  3.7 °C 37.7 °F /  3.2 °C 30.26 in /  1024.6 hPa ESE 6.0 mph /  9.7 km/h 10.0 mph /  16.1 km/h 96 % 0.00 in /  0 mm 313 W/m2
10:50 39.0 °F /  3.9 °C 37.7 °F /  3.2 °C 30.26 in /  1024.6 hPa East 6.0 mph /  9.7 km/h 10.0 mph /  16.1 km/h 95 % 0.00 in /  0 mm 316 W/m2
10:55 39.2 °F /  4 °C 37.6 °F /  3.1 °C 30.25 in /  1024.3 hPa ESE 5.0 mph /  8 km/h 10.0 mph /  16.1 km/h 94 % 0.00 in /  0 mm 343 W/m2
11:05 39.8 °F /  4.3 °C 37.9 °F /  3.3 °C 30.25 in /  1024.3 hPa ESE 6.0 mph /  9.7 km/h 10.0 mph /  16.1 km/h 93 % 0.00 in /  0 mm 327 W/m2
11:10 40.2 °F /  4.6 °C 38.1 °F /  3.4 °C 30.25 in /  1024.3 hPa ENE 5.0 mph /  8 km/h 10.0 mph /  16.1 km/h 92 % 0.00 in /  0 mm 330 W/m2
11:15 40.5 °F /  4.7 °C 38.1 °F /  3.4 °C 30.25 in /  1024.3 hPa ESE 5.0 mph /  8 km/h 10.0 mph /  16.1 km/h 91 % 0.00 in /  0 mm 420 W/m2
11:20 40.6 °F /  4.8 °C 38.2 °F /  3.4 °C 30.25 in /  1024.3 hPa ESE 6.0 mph /  9.7 km/h 6.0 mph /  9.7 km/h 91 % 0.00 in /  0 mm 371 W/m2
11:30 40.9 °F /  4.9 °C 37.9 °F /  3.3 °C 30.25 in /  1024.3 hPa SE 7.0 mph /  11.3 km/h 10.0 mph /  16.1 km/h 89 % 0.00 in /  0 mm 185 W/m2
11:35 40.9 °F /  4.9 °C 37.6 °F /  3.1 °C 30.25 in /  1024.3 hPa SE 7.0 mph /  11.3 km/h 10.0 mph /  16.1 km/h 88 % 0.00 in /  0 mm 220 W/m2
11:40 40.8 °F /  4.9 °C 37.5 °F /  3.1 °C 30.25 in /  1024.3 hPa SE 6.0 mph /  9.7 km/h 10.0 mph /  16.1 km/h 88 % 0.00 in /  0 mm 204 W/m2
11:45 40.7 °F /  4.8 °C 37.4 °F /  3 °C 30.25 in /  1024.3 hPa ESE 7.0 mph /  11.3 km/h 10.0 mph /  16.1 km/h 88 % 0.00 in /  0 mm 149 W/m2
11:55 40.7 °F /  4.8 °C 37.4 °F /  3 °C 30.25 in /  1024.3 hPa ESE 6.0 mph /  9.7 km/h 10.0 mph /  16.1 km/h 88 % 0.00 in /  0 mm 149 W/m2
12:05 40.9 °F /  4.9 °C 37.6 °F /  3.1 °C 30.25 in /  1024.3 hPa SE 5.0 mph /  8 km/h 10.0 mph /  16.1 km/h 88 % 0.00 in /  0 mm 153 W/m2
12:10 41.0 °F /  5 °C 37.7 °F /  3.2 °C 30.25 in /  1024.3 hPa SE 4.0 mph /  6.4 km/h 13.0 mph /  20.9 km/h 88 % 0.00 in /  0 mm 186 W/m2
12:20 41.0 °F /  5 °C 37.4 °F /  3 °C 30.25 in /  1024.3 hPa SE 8.0 mph /  12.9 km/h 10.0 mph /  16.1 km/h 87 % 0.00 in /  0 mm 178 W/m2
12:25 41.1 °F /  5.1 °C 37.5 °F /  3.1 °C 30.25 in /  1024.3 hPa SE 8.0 mph /  12.9 km/h 10.0 mph /  16.1 km/h 87 % 0.00 in /  0 mm 172 W/m2
12:30 41.3 °F /  5.2 °C 37.7 °F /  3.2 °C 30.25 in /  1024.3 hPa ESE 6.0 mph /  9.7 km/h 6.0 mph /  9.7 km/h 87 % 0.00 in /  0 mm 193 W/m2
12:35 41.4 °F /  5.2 °C 37.5 °F /  3.1 °C 30.25 in /  1024.3 hPa SE 6.0 mph /  9.7 km/h 10.0 mph /  16.1 km/h 86 % 0.00 in /  0 mm 199 W/m2
12:40 41.4 °F /  5.2 °C 37.5 °F /  3.1 °C 30.25 in /  1024.3 hPa ESE 6.0 mph /  9.7 km/h 10.0 mph /  16.1 km/h 86 % 0.00 in /  0 mm 181 W/m2
12:50 41.6 °F /  5.3 °C 37.7 °F /  3.2 °C 30.25 in /  1024.3 hPa SE 6.0 mph /  9.7 km/h 6.0 mph /  9.7 km/h 86 % 0.00 in /  0 mm 350 W/m2
12:55 42.0 °F /  5.6 °C 38.4 °F /  3.6 °C 30.25 in /  1024.3 hPa SE 5.0 mph /  8 km/h 10.0 mph /  16.1 km/h 87 % 0.00 in /  0 mm 320 W/m2
13:00 42.3 °F /  5.7 °C 38.4 °F /  3.6 °C 30.25 in /  1024.3 hPa ESE 6.0 mph /  9.7 km/h 6.0 mph /  9.7 km/h 86 % 0.00 in /  0 mm 262 W/m2
13:10 42.5 °F /  5.8 °C 38.6 °F /  3.7 °C 30.25 in /  1024.3 hPa SE 5.0 mph /  8 km/h 10.0 mph /  16.1 km/h 86 % 0.00 in /  0 mm 188 W/m2
13:15 42.6 °F /  5.9 °C 38.4 °F /  3.6 °C 30.25 in /  1024.3 hPa SSE 6.0 mph /  9.7 km/h 10.0 mph /  16.1 km/h 85 % 0.00 in /  0 mm 232 W/m2
13:20 42.7 °F /  5.9 °C 38.5 °F /  3.6 °C 30.25 in /  1024.3 hPa SSE 6.0 mph /  9.7 km/h 10.0 mph /  16.1 km/h 85 % 0.00 in /  0 mm 371 W/m2
13:35 43.1 °F /  6.2 °C 38.6 °F /  3.7 °C 30.25 in /  1024.3 hPa ESE 7.0 mph /  11.3 km/h 10.0 mph /  16.1 km/h 84 % 0.00 in /  0 mm 216 W/m2
13:40 43.2 °F /  6.2 °C 38.7 °F /  3.7 °C 30.25 in /  1024.3 hPa SE 5.0 mph /  8 km/h 5.0 mph /  8 km/h 84 % 0.00 in /  0 mm 158 W/m2
13:55 43.7 °F /  6.5 °C 39.2 °F /  4 °C 30.25 in /  1024.3 hPa SE 6.0 mph /  9.7 km/h 10.0 mph /  16.1 km/h 84 % 0.00 in /  0 mm 295 W/m2
14:05 44.2 °F /  6.8 °C 39.1 °F /  3.9 °C 30.25 in /  1024.3 hPa ESE 4.0 mph /  6.4 km/h 10.0 mph /  16.1 km/h 82 % 0.00 in /  0 mm 290 W/m2
14:15 44.4 °F /  6.9 °C 39.2 °F /  4 °C 30.25 in /  1024.3 hPa South 4.0 mph /  6.4 km/h 10.0 mph /  16.1 km/h 82 % 0.00 in /  0 mm 206 W/m2
14:20 44.5 °F /  6.9 °C 39.3 °F /  4.1 °C 30.25 in /  1024.3 hPa SE 4.0 mph /  6.4 km/h 10.0 mph /  16.1 km/h 82 % 0.00 in /  0 mm 274 W/m2
14:25 44.7 °F /  7.1 °C 39.5 °F /  4.2 °C 30.25 in /  1024.3 hPa SE 3.0 mph /  4.8 km/h 10.0 mph /  16.1 km/h 82 % 0.00 in /  0 mm 246 W/m2
14:30 45.0 °F /  7.2 °C 39.8 °F /  4.3 °C 30.25 in /  1024.3 hPa ESE 2.0 mph /  3.2 km/h 10.0 mph /  16.1 km/h 82 % 0.00 in /  0 mm 251 W/m2
14:40 45.3 °F /  7.4 °C 39.8 °F /  4.3 °C 30.25 in /  1024.3 hPa SE 2.0 mph /  3.2 km/h 10.0 mph /  16.1 km/h 81 % 0.00 in /  0 mm 232 W/m2
14:50 45.4 °F /  7.4 °C 39.6 °F /  4.2 °C 30.25 in /  1024.3 hPa ESE 3.0 mph /  4.8 km/h 3.0 mph /  4.8 km/h 80 % 0.00 in /  0 mm 236 W/m2
14:55 45.5 °F /  7.5 °C 40.0 °F /  4.4 °C 30.25 in /  1024.3 hPa SE 4.0 mph /  6.4 km/h 4.0 mph /  6.4 km/h 81 % 0.00 in /  0 mm 216 W/m2
15:00 45.5 °F /  7.5 °C 39.7 °F /  4.3 °C 30.25 in /  1024.3 hPa ESE 4.0 mph /  6.4 km/h 10.0 mph /  16.1 km/h 80 % 0.00 in /  0 mm 214 W/m2
15:10 45.5 °F /  7.5 °C 40.0 °F /  4.4 °C 30.25 in /  1024.3 hPa ESE 5.0 mph /  8 km/h 10.0 mph /  16.1 km/h 81 % 0.00 in /  0 mm 174 W/m2
15:15 45.4 °F /  7.4 °C 39.9 °F /  4.4 °C 30.25 in /  1024.3 hPa ESE 5.0 mph /  8 km/h 10.0 mph /  16.1 km/h 81 % 0.00 in /  0 mm 169 W/m2
15:20 45.3 °F /  7.4 °C 39.8 °F /  4.3 °C 30.25 in /  1024.3 hPa ESE 5.0 mph /  8 km/h 10.0 mph /  16.1 km/h 81 % 0.00 in /  0 mm 139 W/m2
15:35 44.9 °F /  7.2 °C 39.4 °F /  4.1 °C 30.25 in /  1024.3 hPa ESE 5.0 mph /  8 km/h 10.0 mph /  16.1 km/h 81 % 0.00 in /  0 mm 113 W/m2
15:40 44.8 °F /  7.1 °C 39.6 °F /  4.2 °C 30.25 in /  1024.3 hPa ESE 5.0 mph /  8 km/h 5.0 mph /  8 km/h 82 % 0.00 in /  0 mm 107 W/m2
15:45 44.6 °F /  7 °C 39.4 °F /  4.1 °C 30.26 in /  1024.6 hPa ESE 4.0 mph /  6.4 km/h 10.0 mph /  16.1 km/h 82 % 0.00 in /  0 mm 86 W/m2
15:50 44.6 °F /  7 °C 39.8 °F /  4.3 °C 30.26 in /  1024.6 hPa SE 4.0 mph /  6.4 km/h 4.0 mph /  6.4 km/h 83 % 0.00 in /  0 mm 76 W/m2
16:00 44.4 °F /  6.9 °C 39.6 °F /  4.2 °C 30.26 in /  1024.6 hPa SE 5.0 mph /  8 km/h 10.0 mph /  16.1 km/h 83 % 0.00 in /  0 mm 74 W/m2
16:05 44.3 °F /  6.8 °C 39.8 °F /  4.3 °C 30.27 in /  1024.9 hPa ESE 4.0 mph /  6.4 km/h 10.0 mph /  16.1 km/h 84 % 0.00 in /  0 mm 60 W/m2
16:10 44.3 °F /  6.8 °C 39.8 °F /  4.3 °C 30.27 in /  1024.9 hPa SE 4.0 mph /  6.4 km/h 4.0 mph /  6.4 km/h 84 % 0.00 in /  0 mm 40 W/m2
16:20 44.2 °F /  6.8 °C 39.7 °F /  4.3 °C 30.27 in /  1024.9 hPa SE 4.0 mph /  6.4 km/h 10.0 mph /  16.1 km/h 84 % 0.00 in /  0 mm 23 W/m2
16:25 44.1 °F /  6.7 °C 39.9 °F /  4.4 °C 30.26 in /  1024.6 hPa East 4.0 mph /  6.4 km/h 10.0 mph /  16.1 km/h 85 % 0.00 in /  0 mm 21 W/m2
16:30 44.1 °F /  6.7 °C 39.9 °F /  4.4 °C 30.27 in /  1024.9 hPa SE 3.0 mph /  4.8 km/h 10.0 mph /  16.1 km/h 85 % 0.00 in /  0 mm 21 W/m2
16:40 44.1 °F /  6.7 °C 39.9 °F /  4.4 °C 30.27 in /  1024.9 hPa ESE 2.0 mph /  3.2 km/h 10.0 mph /  16.1 km/h 85 % 0.00 in /  0 mm 9 W/m2
16:45 44.1 °F /  6.7 °C 39.9 °F /  4.4 °C 30.26 in /  1024.6 hPa ESE 2.0 mph /  3.2 km/h 10.0 mph /  16.1 km/h 85 % 0.00 in /  0 mm 9 W/m2
16:50 44.1 °F /  6.7 °C 39.9 °F /  4.4 °C 30.26 in /  1024.6 hPa ESE 2.0 mph /  3.2 km/h 2.0 mph /  3.2 km/h 85 % 0.00 in /  0 mm 9 W/m2
17:00 43.8 °F /  6.6 °C 39.9 °F /  4.4 °C 30.26 in /  1024.6 hPa ESE 1.0 mph /  1.6 km/h 1.0 mph /  1.6 km/h 86 % 0.00 in /  0 mm 5 W/m2
17:05 43.6 °F /  6.4 °C 39.7 °F /  4.3 °C 30.26 in /  1024.6 hPa East 1.0 mph /  1.6 km/h 10.0 mph /  16.1 km/h 86 % 0.00 in /  0 mm 0 W/m2
17:10 43.6 °F /  6.4 °C 39.7 °F /  4.3 °C 30.26 in /  1024.6 hPa ESE 1.0 mph /  1.6 km/h 10.0 mph /  16.1 km/h 86 % 0.00 in /  0 mm 0 W/m2
17:20 43.5 °F /  6.4 °C 39.9 °F /  4.4 °C 30.27 in /  1024.9 hPa ESE 1.0 mph /  1.6 km/h 1.0 mph /  1.6 km/h 87 % 0.00 in /  0 mm 0 W/m2
17:25 43.5 °F /  6.4 °C 39.9 °F /  4.4 °C 30.27 in /  1024.9 hPa Calm   4.0 mph /  6.4 km/h 87 % 0.00 in /  0 mm 0 W/m2
17:30 43.5 °F /  6.4 °C 39.9 °F /  4.4 °C 30.27 in /  1024.9 hPa Calm   10.0 mph /  16.1 km/h 87 % 0.00 in /  0 mm 0 W/m2
17:40 43.6 °F /  6.4 °C 40.3 °F /  4.6 °C 30.28 in /  1025.3 hPa ESE 1.0 mph /  1.6 km/h 1.0 mph /  1.6 km/h 88 % 0.00 in /  0 mm 0 W/m2
17:45 43.6 °F /  6.4 °C 40.0 °F /  4.4 °C 30.28 in /  1025.3 hPa ESE 2.0 mph /  3.2 km/h 2.0 mph /  3.2 km/h 87 % 0.00 in /  0 mm 0 W/m2
17:50 43.6 °F /  6.4 °C 40.0 °F /  4.4 °C 30.28 in /  1025.3 hPa ESE 1.0 mph /  1.6 km/h 1.0 mph /  1.6 km/h 87 % 0.00 in /  0 mm 0 W/m2
17:55 43.5 °F /  6.4 °C 40.2 °F /  4.6 °C 30.29 in /  1025.6 hPa Calm   10.0 mph /  16.1 km/h 88 % 0.00 in /  0 mm 0 W/m2
18:05 43.5 °F /  6.4 °C 40.2 °F /  4.6 °C 30.28 in /  1025.3 hPa ESE 1.0 mph /  1.6 km/h 10.0 mph /  16.1 km/h 88 % 0.00 in /  0 mm 0 W/m2
18:10 43.6 °F /  6.4 °C 40.3 °F /  4.6 °C 30.28 in /  1025.3 hPa Calm   10.0 mph /  16.1 km/h 88 % 0.00 in /  0 mm 0 W/m2
18:15 43.6 °F /  6.4 °C 40.3 °F /  4.6 °C 30.28 in /  1025.3 hPa Calm   10.0 mph /  16.1 km/h 88 % 0.00 in /  0 mm 0 W/m2
18:25 43.6 °F /  6.4 °C 40.3 °F /  4.6 °C 30.28 in /  1025.3 hPa ESE 1.0 mph /  1.6 km/h 10.0 mph /  16.1 km/h 88 % 0.00 in /  0 mm 0 W/m2
18:30 43.6 °F /  6.4 °C 40.3 °F /  4.6 °C 30.28 in /  1025.3 hPa ESE 1.0 mph /  1.6 km/h 1.0 mph /  1.6 km/h 88 % 0.00 in /  0 mm 0 W/m2
18:35 43.6 °F /  6.4 °C 40.6 °F /  4.8 °C 30.28 in /  1025.3 hPa Calm   10.0 mph /  16.1 km/h 89 % 0.00 in /  0 mm 0 W/m2
18:40 43.6 °F /  6.4 °C 40.6 °F /  4.8 °C 30.28 in /  1025.3 hPa Calm   10.0 mph /  16.1 km/h 89 % 0.00 in /  0 mm 0 W/m2
18:50 43.7 °F /  6.5 °C 40.4 °F /  4.7 °C 30.28 in /  1025.3 hPa Calm   10.0 mph /  16.1 km/h 88 % 0.00 in /  0 mm 0 W/m2
18:55 43.6 °F /  6.4 °C 40.6 °F /  4.8 °C 30.29 in /  1025.6 hPa Calm   10.0 mph /  16.1 km/h 89 % 0.00 in /  0 mm 0 W/m2
19:00 43.6 °F /  6.4 °C 40.6 °F /  4.8 °C 30.29 in /  1025.6 hPa Calm   10.0 mph /  16.1 km/h 89 % 0.00 in /  0 mm 0 W/m2
19:10 43.6 °F /  6.4 °C 40.6 °F /  4.8 °C 30.28 in /  1025.3 hPa Calm   10.0 mph /  16.1 km/h 89 % 0.00 in /  0 mm 0 W/m2
19:15 43.5 °F /  6.4 °C 40.5 °F /  4.7 °C 30.28 in /  1025.3 hPa Calm   10.0 mph /  16.1 km/h 89 % 0.00 in /  0 mm 0 W/m2
19:20 43.5 °F /  6.4 °C 40.5 °F /  4.7 °C 30.28 in /  1025.3 hPa Calm   10.0 mph /  16.1 km/h 89 % 0.00 in /  0 mm 0 W/m2
19:30 43.5 °F /  6.4 °C 40.5 °F /  4.7 °C 30.28 in /  1025.3 hPa Calm   10.0 mph /  16.1 km/h 89 % 0.00 in /  0 mm 0 W/m2
19:35 43.5 °F /  6.4 °C 40.8 °F /  4.9 °C 30.28 in /  1025.3 hPa Calm   10.0 mph /  16.1 km/h 90 % 0.00 in /  0 mm 0 W/m2
19:40 43.6 °F /  6.4 °C 40.9 °F /  4.9 °C 30.28 in /  1025.3 hPa Calm   10.0 mph /  16.1 km/h 90 % 0.00 in /  0 mm 0 W/m2
19:50 43.6 °F /  6.4 °C 40.9 °F /  4.9 °C 30.28 in /  1025.3 hPa Calm   10.0 mph /  16.1 km/h 90 % 0.00 in /  0 mm 0 W/m2
19:55 43.6 °F /  6.4 °C 40.9 °F /  4.9 °C 30.28 in /  1025.3 hPa Calm   10.0 mph /  16.1 km/h 90 % 0.00 in /  0 mm 0 W/m2
20:00 43.6 °F /  6.4 °C 40.9 °F /  4.9 °C 30.28 in /  1025.3 hPa Calm   10.0 mph /  16.1 km/h 90 % 0.00 in /  0 mm 0 W/m2
20:10 43.6 °F /  6.4 °C 40.9 °F /  4.9 °C 30.28 in /  1025.3 hPa Calm   10.0 mph /  16.1 km/h 90 % 0.00 in /  0 mm 0 W/m2
20:15 43.5 °F /  6.4 °C 40.8 °F /  4.9 °C 30.28 in /  1025.3 hPa Calm   10.0 mph /  16.1 km/h 90 % 0.00 in /  0 mm 0 W/m2
20:20 43.5 °F /  6.4 °C 40.8 °F /  4.9 °C 30.28 in /  1025.3 hPa Calm   10.0 mph /  16.1 km/h 90 % 0.00 in /  0 mm 0 W/m2
20:25 43.5 °F /  6.4 °C 40.8 °F /  4.9 °C 30.28 in /  1025.3 hPa Calm   10.0 mph /  16.1 km/h 90 % 0.00 in /  0 mm 0 W/m2
20:30 43.5 °F /  6.4 °C 40.8 °F /  4.9 °C 30.28 in /  1025.3 hPa Calm   10.0 mph /  16.1 km/h 90 % 0.00 in /  0 mm 0 W/m2
20:40 43.5 °F /  6.4 °C 41.0 °F /  5 °C 30.28 in /  1025.3 hPa Calm   10.0 mph /  16.1 km/h 91 % 0.00 in /  0 mm 0 W/m2
20:45 43.5 °F /  6.4 °C 41.0 °F /  5 °C 30.28 in /  1025.3 hPa Calm   10.0 mph /  16.1 km/h 91 % 0.00 in /  0 mm 0 W/m2
20:50 43.6 °F /  6.4 °C 40.9 °F /  4.9 °C 30.28 in /  1025.3 hPa Calm   10.0 mph /  16.1 km/h 90 % 0.00 in /  0 mm 0 W/m2
21:00 43.6 °F /  6.4 °C 41.1 °F /  5.1 °C 30.28 in /  1025.3 hPa Calm   10.0 mph /  16.1 km/h 91 % 0.00 in /  0 mm 0 W/m2
21:05 43.7 °F /  6.5 °C 41.0 °F /  5 °C 30.29 in /  1025.6 hPa Calm   10.0 mph /  16.1 km/h 90 % 0.00 in /  0 mm 0 W/m2
21:10 43.7 °F /  6.5 °C 41.2 °F /  5.1 °C 30.29 in /  1025.6 hPa Calm   10.0 mph /  16.1 km/h 91 % 0.00 in /  0 mm 0 W/m2
21:20 43.5 °F /  6.4 °C 40.8 °F /  4.9 °C 30.29 in /  1025.6 hPa Calm   10.0 mph /  16.1 km/h 90 % 0.00 in /  0 mm 0 W/m2
21:25 43.4 °F /  6.3 °C 40.9 °F /  4.9 °C 30.29 in /  1025.6 hPa Calm   10.0 mph /  16.1 km/h 91 % 0.00 in /  0 mm 0 W/m2
21:30 43.5 °F /  6.4 °C 41.0 °F /  5 °C 30.29 in /  1025.6 hPa Calm   10.0 mph /  16.1 km/h 91 % 0.00 in /  0 mm 0 W/m2
21:35 43.5 °F /  6.4 °C 41.0 °F /  5 °C 30.29 in /  1025.6 hPa ESE 1.0 mph /  1.6 km/h 10.0 mph /  16.1 km/h 91 % 0.00 in /  0 mm 0 W/m2
21:45 43.6 °F /  6.4 °C 41.1 °F /  5.1 °C 30.28 in /  1025.3 hPa Calm   10.0 mph /  16.1 km/h 91 % 0.00 in /  0 mm 0 W/m2
21:50 43.6 °F /  6.4 °C 41.1 °F /  5.1 °C 30.28 in /  1025.3 hPa Calm   10.0 mph /  16.1 km/h 91 % 0.00 in /  0 mm 0 W/m2
21:55 43.7 °F /  6.5 °C 41.2 °F /  5.1 °C 30.28 in /  1025.3 hPa Calm   10.0 mph /  16.1 km/h 91 % 0.00 in /  0 mm 0 W/m2
22:05 43.7 °F /  6.5 °C 41.2 °F /  5.1 °C 30.29 in /  1025.6 hPa Calm   10.0 mph /  16.1 km/h 91 % 0.00 in /  0 mm 0 W/m2
22:10 43.7 °F /  6.5 °C 41.2 °F /  5.1 °C 30.29 in /  1025.6 hPa Calm   10.0 mph /  16.1 km/h 91 % 0.00 in /  0 mm 0 W/m2
22:15 43.7 °F /  6.5 °C 41.2 °F /  5.1 °C 30.29 in /  1025.6 hPa Calm   10.0 mph /  16.1 km/h 91 % 0.00 in /  0 mm 0 W/m2
22:20 43.7 °F /  6.5 °C 41.2 °F /  5.1 °C 30.29 in /  1025.6 hPa Calm   10.0 mph /  16.1 km/h 91 % 0.00 in /  0 mm 0 W/m2
22:25 43.7 °F /  6.5 °C 41.2 °F /  5.1 °C 30.29 in /  1025.6 hPa Calm   10.0 mph /  16.1 km/h 91 % 0.00 in /  0 mm 0 W/m2
22:30 43.6 °F /  6.4 °C 41.1 °F /  5.1 °C 30.29 in /  1025.6 hPa Calm   10.0 mph /  16.1 km/h 91 % 0.00 in /  0 mm 0 W/m2
22:40 43.6 °F /  6.4 °C 41.1 °F /  5.1 °C 30.28 in /  1025.3 hPa Calm   10.0 mph /  16.1 km/h 91 % 0.00 in /  0 mm 0 W/m2
22:45 43.6 °F /  6.4 °C 41.1 °F /  5.1 °C 30.29 in /  1025.6 hPa ESE 1.0 mph /  1.6 km/h 10.0 mph /  16.1 km/h 91 % 0.00 in /  0 mm 0 W/m2
22:50 43.6 °F /  6.4 °C 41.4 °F /  5.2 °C 30.29 in /  1025.6 hPa ESE 1.0 mph /  1.6 km/h 1.0 mph /  1.6 km/h 92 % 0.00 in /  0 mm 0 W/m2
22:55 43.7 °F /  6.5 °C 41.5 °F /  5.3 °C 30.29 in /  1025.6 hPa Calm   10.0 mph /  16.1 km/h 92 % 0.00 in /  0 mm 0 W/m2
23:05 43.8 °F /  6.6 °C 41.6 °F /  5.3 °C 30.29 in /  1025.6 hPa Calm   10.0 mph /  16.1 km/h 92 % 0.00 in /  0 mm 0 W/m2
23:10 43.9 °F /  6.6 °C 41.7 °F /  5.4 °C 30.29 in /  1025.6 hPa Calm   10.0 mph /  16.1 km/h 92 % 0.00 in /  0 mm 0 W/m2
23:15 43.9 °F /  6.6 °C 41.7 °F /  5.4 °C 30.29 in /  1025.6 hPa Calm   10.0 mph /  16.1 km/h 92 % 0.00 in /  0 mm 0 W/m2
23:25 44.0 °F /  6.7 °C 41.8 °F /  5.4 °C 30.29 in /  1025.6 hPa Calm   10.0 mph /  16.1 km/h 92 % 0.00 in /  0 mm 0 W/m2
23:30 44.0 °F /  6.7 °C 41.8 °F /  5.4 °C 30.29 in /  1025.6 hPa Calm   10.0 mph /  16.1 km/h 92 % 0.00 in /  0 mm 0 W/m2
23:35 44.1 °F /  6.7 °C 41.9 °F /  5.5 °C 30.29 in /  1025.6 hPa Calm   10.0 mph /  16.1 km/h 92 % 0.00 in /  0 mm 0 W/m2
23:40 44.1 °F /  6.7 °C 41.9 °F /  5.5 °C 30.30 in /  1026 hPa Calm   10.0 mph /  16.1 km/h 92 % 0.00 in /  0 mm 0 W/m2
23:50 44.1 °F /  6.7 °C 41.9 °F /  5.5 °C 30.30 in /  1026 hPa Calm   10.0 mph /  16.1 km/h 92 % 0.00 in /  0 mm 0 W/m2
23:55 44.1 °F /  6.7 °C 41.9 °F /  5.5 °C 30.30 in /  1026 hPa Calm   10.0 mph /  16.1 km/h 92 % 0.00 in /  0 mm 0 W/m2
Delerius-Weather
Compliments of Weather Underground - 2 mb

Data updates at regular intervals.